Time;durP1;ratioP1;P1;durP2;ratioP2;P2;SDS_P1;SDS_P2;PMS_P1;PMS_P2;Temp;Humidity;BMP_temperature;BMP_pressure;BME280_temperature;BME280_humidity;BME280_pressure;Samples;Min_cycle;Max_cycle;Signal;HPM_P1;HPM_P2
2021/11/07 00:00:33;;;;;;;10.93;6.18;;;8.10;99.90;;;;;;5113868;28;19924;-71
2021/11/07 00:03:06;;;;;;;10.77;4.88;;;8.00;99.90;;;;;;5113759;28;20078;-71
2021/11/07 00:05:35;;;;;;;7.93;4.55;;;8.10;99.90;;;;;;5114243;28;20047;-71
2021/11/07 00:08:13;;;;;;;8.77;5.43;;;8.10;99.90;;;;;;5113791;28;20040;-70
2021/11/07 00:10:44;;;;;;;11.32;6.22;;;8.10;99.90;;;;;;5113539;28;20519;-70
2021/11/07 00:13:16;;;;;;;7.30;4.93;;;8.10;99.90;;;;;;5113142;28;20054;-71
2021/11/07 00:15:43;;;;;;;;;;;8.00;99.90;;;;;;5114050;28;20050;-71
2021/11/07 00:18:12;;;;;;;7.75;4.65;;;8.10;99.90;;;;;;5113311;28;19919;-71
2021/11/07 00:20:44;;;;;;;6.57;4.97;;;8.10;99.90;;;;;;5113482;28;20044;-71
2021/11/07 00:23:23;;;;;;;7.55;4.78;;;8.10;99.90;;;;;;5113059;28;20044;-71
2021/11/07 00:25:55;;;;;;;7.28;5.50;;;8.10;99.90;;;;;;5113262;28;20054;-71
2021/11/07 00:28:27;;;;;;;;;;;8.00;99.90;;;;;;5113551;28;20055;-70
2021/11/07 00:31:02;;;;;;;6.53;5.05;;;8.10;99.90;;;;;;5112853;28;19926;-71
2021/11/07 00:33:42;;;;;;;7.72;4.90;;;8.10;99.90;;;;;;5112637;28;20505;-72
2021/11/07 00:36:18;;;;;;;7.80;5.95;;;8.00;99.90;;;;;;5113171;28;20067;-71
2021/11/07 00:38:50;;;;;;;11.02;5.32;;;8.00;99.90;;;;;;5113207;28;20048;-70
2021/11/07 00:41:29;;;;;;;10.70;5.45;;;8.00;99.90;;;;;;5113153;28;20157;-71
2021/11/07 00:44:01;;;;;;;8.55;5.13;;;7.90;99.90;;;;;;5112718;28;20088;-71
2021/11/07 00:46:32;;;;;;;7.30;5.45;;;7.90;99.90;;;;;;5112795;28;20487;-71
2021/11/07 00:49:01;;;;;;;6.55;5.03;;;8.00;99.90;;;;;;5112809;28;20039;-71
2021/11/07 00:51:32;;;;;;;8.40;5.13;;;8.00;99.90;;;;;;5113235;28;20079;-71
2021/11/07 00:56:49;;;;;;;8.35;4.53;;;7.90;99.90;;;;;;5108833;28;20047;-70
2021/11/07 00:59:24;;;;;;;10.57;5.03;;;7.90;99.90;;;;;;5112670;28;20139;-71
2021/11/07 01:01:53;;;;;;;8.15;4.20;;;7.90;99.90;;;;;;5112525;28;20043;-70
2021/11/07 01:04:20;;;;;;;10.75;5.75;;;7.90;99.90;;;;;;5112231;28;20058;-71
2021/11/07 01:06:48;;;;;;;8.23;4.68;;;7.90;99.90;;;;;;5112801;28;20063;-70
2021/11/07 01:09:15;;;;;;;8.88;4.82;;;7.90;99.90;;;;;;5112620;28;20054;-70
2021/11/07 01:11:42;;;;;;;8.52;4.63;;;7.90;99.90;;;;;;5112535;28;20050;-70
2021/11/07 01:14:11;;;;;;;6.28;3.90;;;7.90;99.90;;;;;;5112366;28;20479;-71
2021/11/07 01:16:39;;;;;;;6.00;4.03;;;7.90;99.90;;;;;;5112608;28;20074;-71
2021/11/07 01:19:06;;;;;;;8.30;4.93;;;7.80;99.90;;;;;;5112536;28;20043;-71
2021/11/07 01:21:36;;;;;;;8.38;3.60;;;7.80;99.90;;;;;;5112329;28;20555;-71
2021/11/07 01:24:06;;;;;;;4.88;3.80;;;7.80;99.90;;;;;;5111921;28;20048;-71
2021/11/07 01:26:35;;;;;;;5.45;3.70;;;7.80;99.90;;;;;;5112403;28;20297;-71
2021/11/07 01:29:09;;;;;;;6.78;3.95;;;7.70;99.90;;;;;;5112116;28;20411;-71
2021/11/07 01:31:37;;;;;;;7.97;4.50;;;7.70;99.90;;;;;;5112478;28;20047;-70
2021/11/07 01:34:05;;;;;;;9.60;4.82;;;7.70;99.90;;;;;;5112019;28;20047;-70
2021/11/07 01:36:39;;;;;;;6.53;4.68;;;7.70;99.90;;;;;;5112312;28;20044;-72
2021/11/07 01:39:11;;;;;;;6.55;4.55;;;7.70;99.90;;;;;;5112185;28;20043;-71
2021/11/07 01:44:19;;;;;;;8.10;4.30;;;7.80;99.90;;;;;;5112002;28;20118;-71
2021/11/07 01:46:51;;;;;;;5.53;3.92;;;7.70;99.90;;;;;;5116431;28;20043;-72
2021/11/07 01:49:21;;;;;;;5.03;3.85;;;7.70;99.90;;;;;;5116315;28;20053;-71
2021/11/07 01:51:51;;;;;;;8.68;4.45;;;7.60;99.90;;;;;;5116216;28;20047;-71
2021/11/07 01:54:23;;;;;;;5.70;4.82;;;7.60;99.90;;;;;;5115960;28;20051;-71
2021/11/07 01:56:50;;;;;;;6.57;4.32;;;7.70;99.90;;;;;;5116374;28;20044;-69
2021/11/07 01:59:17;;;;;;;5.15;4.50;;;7.60;99.90;;;;;;5116100;28;20043;-71
2021/11/07 02:01:44;;;;;;;5.65;4.03;;;7.60;99.90;;;;;;5116093;28;20048;-71
2021/11/07 02:04:12;;;;;;;13.07;4.82;;;7.70;99.90;;;;;;5115663;28;20093;-71
2021/11/07 02:06:39;;;;;;;6.80;4.35;;;7.70;99.90;;;;;;5116203;28;20100;-71
2021/11/07 02:09:05;;;;;;;5.22;3.85;;;7.70;99.90;;;;;;5116105;27;20047;-71
2021/11/07 02:11:32;;;;;;;6.53;4.03;;;7.70;99.90;;;;;;5116020;28;20048;-70
2021/11/07 02:13:59;;;;;;;5.13;3.45;;;7.70;99.90;;;;;;5115390;28;20048;-71
2021/11/07 02:16:26;;;;;;;6.47;4.72;;;7.70;99.90;;;;;;5115833;28;20043;-71
2021/11/07 02:18:53;;;;;;;7.78;4.40;;;7.70;99.90;;;;;;5115533;28;20051;-71
2021/11/07 02:21:27;;;;;;;4.60;3.30;;;7.80;99.90;;;;;;5116212;28;20100;-71
2021/11/07 02:23:53;;;;;;;6.35;3.88;;;7.80;99.90;;;;;;5114382;28;20380;-71
2021/11/07 02:26:20;;;;;;;6.82;4.20;;;7.80;99.90;;;;;;5115767;28;20044;-71
2021/11/07 02:28:49;;;;;;;6.53;5.05;;;7.80;99.90;;;;;;5115486;28;20560;-71
2021/11/07 02:31:19;;;;;;;8.90;4.50;;;7.80;99.90;;;;;;5115572;28;20498;-71
2021/11/07 02:33:47;;;;;;;5.55;3.92;;;7.80;99.90;;;;;;5115110;28;20461;-72
2021/11/07 02:36:17;;;;;;;5.65;3.67;;;7.90;99.90;;;;;;5115606;28;20093;-72
2021/11/07 02:38:46;;;;;;;5.88;4.07;;;7.90;99.90;;;;;;5115440;28;20043;-71
2021/11/07 02:41:13;;;;;;;5.68;4.00;;;7.90;99.90;;;;;;5115390;28;20219;-72
2021/11/07 02:43:42;;;;;;;5.20;3.70;;;7.90;99.90;;;;;;5114914;28;20408;-71
2021/11/07 02:46:15;;;;;;;6.85;4.15;;;7.90;99.90;;;;;;5115117;28;20046;-71
2021/11/07 02:48:42;;;;;;;6.60;3.90;;;7.90;99.90;;;;;;5115076;28;20469;-70
2021/11/07 02:51:09;;;;;;;4.47;3.38;;;7.90;99.90;;;;;;5115245;28;20097;-72
2021/11/07 02:53:36;;;;;;;7.10;4.78;;;8.00;99.90;;;;;;5114000;28;20552;-72
2021/11/07 02:56:04;;;;;;;5.70;3.83;;;7.90;99.90;;;;;;5115145;28;20096;-71
2021/11/07 02:58:32;;;;;;;3.92;2.95;;;7.90;99.90;;;;;;5115002;28;20461;-71
2021/11/07 03:00:59;;;;;;;6.18;4.38;;;8.00;99.90;;;;;;5115299;28;20086;-72
2021/11/07 03:03:26;;;;;;;5.88;3.63;;;7.90;99.90;;;;;;5114654;28;20096;-71
2021/11/07 03:05:53;;;;;;;4.05;3.13;;;8.00;99.90;;;;;;5114936;28;20047;-71
2021/11/07 03:08:20;;;;;;;7.32;4.72;;;8.00;99.90;;;;;;5114941;28;20048;-71
2021/11/07 03:10:46;;;;;;;4.05;3.55;;;8.00;99.90;;;;;;5114703;28;20047;-71
2021/11/07 03:13:17;;;;;;;6.45;4.40;;;8.10;99.90;;;;;;5114337;28;20043;-71
2021/11/07 03:15:43;;;;;;;6.15;3.65;;;8.00;99.90;;;;;;5114979;28;20097;-70
2021/11/07 03:18:11;;;;;;;5.32;3.70;;;8.10;99.90;;;;;;5114819;28;20109;-71
2021/11/07 03:20:38;;;;;;;4.63;3.75;;;8.10;99.90;;;;;;5114757;28;20078;-70
2021/11/07 03:23:05;;;;;;;4.85;3.35;;;8.10;99.90;;;;;;5114478;28;20048;-71
2021/11/07 03:25:33;;;;;;;3.65;2.67;;;8.10;99.90;;;;;;5114549;28;20043;-71
2021/11/07 03:27:59;;;;;;;4.38;3.53;;;8.10;99.90;;;;;;5114932;28;20143;-71
2021/11/07 03:30:40;;;;;;;6.40;3.95;;;8.10;99.90;;;;;;5114603;28;20048;-72
2021/11/07 03:33:14;;;;;;;6.63;3.95;;;8.10;99.90;;;;;;5114132;28;20052;-73
2021/11/07 03:35:42;;;;;;;4.65;3.53;;;8.20;99.90;;;;;;5114361;28;20051;-71
2021/11/07 03:38:09;;;;;;;6.32;3.78;;;8.20;99.90;;;;;;5114222;28;20071;-72
2021/11/07 03:40:36;;;;;;;6.03;3.50;;;8.10;99.90;;;;;;5114437;28;20047;-71
2021/11/07 03:43:03;;;;;;;5.65;3.08;;;8.10;99.90;;;;;;5114374;28;20075;-72
2021/11/07 03:45:32;;;;;;;3.85;2.60;;;8.10;99.90;;;;;;5113907;28;20043;-72
2021/11/07 03:48:00;;;;;;;4.95;3.40;;;8.10;99.90;;;;;;5114151;28;20088;-73
2021/11/07 03:50:27;;;;;;;6.15;3.47;;;8.10;99.90;;;;;;5113893;28;20397;-71
2021/11/07 03:52:55;;;;;;;4.93;4.30;;;8.10;99.90;;;;;;5114064;28;20425;-71
2021/11/07 03:55:22;;;;;;;6.25;3.55;;;8.10;99.90;;;;;;5113398;28;20048;-71
2021/11/07 03:57:49;;;;;;;8.52;3.80;;;8.10;99.90;;;;;;5113783;28;20503;-72
2021/11/07 04:00:19;;;;;;;6.90;4.00;;;8.10;99.90;;;;;;5113655;28;20112;-71
2021/11/07 04:02:47;;;;;;;6.07;2.67;;;8.10;99.90;;;;;;5113869;28;20047;-71
2021/11/07 04:05:14;;;;;;;5.65;3.78;;;8.10;99.90;;;;;;5112761;28;20093;-70
2021/11/07 04:07:41;;;;;;;4.00;2.75;;;8.10;99.90;;;;;;5113257;28;20453;-70
2021/11/07 04:10:11;;;;;;;4.63;3.55;;;8.10;99.90;;;;;;5113660;28;20093;-70
2021/11/07 04:12:37;;;;;;;3.78;2.97;;;8.10;99.90;;;;;;5113497;28;20487;-71
2021/11/07 04:15:06;;;;;;;7.05;3.65;;;8.10;99.90;;;;;;5112923;28;20051;-70
2021/11/07 04:17:32;;;;;;;7.13;3.65;;;8.10;99.90;;;;;;5113437;28;20101;-71
2021/11/07 04:20:00;;;;;;;6.03;3.65;;;8.10;99.90;;;;;;5113478;28;20047;-71
2021/11/07 04:22:27;;;;;;;3.22;2.58;;;8.10;99.90;;;;;;5113528;28;20048;-71
2021/11/07 04:24:54;;;;;;;7.30;3.42;;;8.10;99.90;;;;;;5112940;28;20051;-71
2021/11/07 04:27:23;;;;;;;4.95;3.92;;;8.10;99.90;;;;;;5113318;28;20116;-71
2021/11/07 04:29:49;;;;;;;7.18;3.78;;;8.00;99.90;;;;;;5113107;28;20039;-71
2021/11/07 04:32:16;;;;;;;8.45;4.90;;;7.90;99.90;;;;;;5112991;28;20051;-70
2021/11/07 04:34:43;;;;;;;7.03;4.22;;;7.70;99.90;;;;;;5112934;28;20184;-71
2021/11/07 04:37:12;;;;;;;6.20;3.78;;;7.60;99.90;;;;;;5113163;28;20040;-72
2021/11/07 04:39:38;;;;;;;5.85;3.70;;;7.50;99.90;;;;;;5113116;28;20607;-71
2021/11/07 04:42:05;;;;;;;7.05;4.43;;;7.40;99.90;;;;;;5112944;28;20047;-70
2021/11/07 04:44:32;;;;;;;6.50;4.50;;;7.40;99.90;;;;;;5112982;28;20483;-70
2021/11/07 04:47:00;;;;;;;4.33;3.87;;;7.30;99.90;;;;;;5112621;28;20096;-70
2021/11/07 04:49:27;;;;;;;5.85;4.10;;;7.30;99.90;;;;;;5113190;28;20044;-71
2021/11/07 04:51:54;;;;;;;5.10;4.10;;;7.30;99.90;;;;;;5112954;28;20044;-71
2021/11/07 04:54:24;;;;;;;5.28;3.75;;;7.30;99.90;;;;;;5112299;28;20051;-71
2021/11/07 04:56:51;;;;;;;6.97;3.87;;;7.40;99.90;;;;;;5112464;28;20047;-71
2021/11/07 04:59:18;;;;;;;5.85;4.65;;;7.40;99.90;;;;;;5112457;28;20047;-71
2021/11/07 05:01:45;;;;;;;7.13;4.03;;;7.40;99.90;;;;;;5112848;28;20048;-71
2021/11/07 05:04:12;;;;;;;5.97;4.07;;;7.40;99.90;;;;;;5112266;28;20043;-72
2021/11/07 05:06:38;;;;;;;5.43;4.10;;;7.30;99.90;;;;;;5112730;28;20043;-71
2021/11/07 05:09:05;;;;;;;4.03;3.60;;;7.40;99.90;;;;;;5112559;28;20044;-71
2021/11/07 05:11:33;;;;;;;4.60;3.00;;;7.40;99.90;;;;;;5112386;28;20088;-71
2021/11/07 05:14:00;;;;;;;7.05;4.18;;;7.40;99.90;;;;;;5111806;28;20050;-71
2021/11/07 05:16:27;;;;;;;5.38;3.35;;;7.40;99.90;;;;;;5112433;28;20047;-71
2021/11/07 05:18:54;;;;;;;6.03;3.33;;;7.50;99.90;;;;;;5112343;28;20132;-71
2021/11/07 05:21:22;;;;;;;8.30;4.35;;;7.50;99.90;;;;;;5112318;28;20514;-72
2021/11/07 05:23:49;;;;;;;7.03;3.83;;;7.50;99.90;;;;;;5111938;28;20100;-71
2021/11/07 05:26:16;;;;;;;5.50;2.57;;;7.50;99.90;;;;;;5112182;28;20048;-71
2021/11/07 05:28:44;;;;;;;4.47;4.07;;;7.50;99.90;;;;;;5112338;28;20059;-72
2021/11/07 05:31:11;;;;;;;4.50;3.22;;;7.60;99.90;;;;;;5112296;28;20103;-71
2021/11/07 05:33:39;;;;;;;8.50;3.90;;;7.60;99.90;;;;;;5112222;28;20487;-71
2021/11/07 05:36:05;;;;;;;4.93;3.42;;;7.60;99.90;;;;;;5112126;28;20142;-71
2021/11/07 05:38:32;;;;;;;4.63;2.92;;;7.60;99.90;;;;;;5112142;28;20073;-71
2021/11/07 05:40:59;;;;;;;3.17;2.87;;;7.60;99.90;;;;;;5111959;28;20491;-71
2021/11/07 05:43:26;;;;;;;4.67;3.23;;;7.50;99.90;;;;;;5111719;28;20112;-72
2021/11/07 05:45:54;;;;;;;7.10;3.42;;;7.50;99.90;;;;;;5112164;28;20553;-71
2021/11/07 05:48:21;;;;;;;4.78;3.10;;;7.50;99.90;;;;;;5112076;28;20097;-72
2021/11/07 05:50:48;;;;;;;4.72;3.13;;;7.50;99.90;;;;;;5112089;28;20047;-72
2021/11/07 05:53:15;;;;;;;4.82;3.05;;;7.60;99.90;;;;;;5111584;28;20040;-70
2021/11/07 05:55:42;;;;;;;5.85;3.55;;;7.60;99.90;;;;;;5111693;28;20044;-71
2021/11/07 05:58:08;;;;;;;5.68;3.78;;;7.60;99.90;;;;;;5112150;28;20047;-71
2021/11/07 06:00:35;;;;;;;6.05;3.20;;;7.60;99.90;;;;;;5111742;28;20572;-71
2021/11/07 06:03:06;;;;;;;4.17;3.30;;;7.70;99.90;;;;;;5112116;28;20043;-72
2021/11/07 06:05:33;;;;;;;3.55;2.67;;;7.70;99.90;;;;;;5112123;28;20422;-72
2021/11/07 06:08:00;;;;;;;4.78;3.60;;;7.80;99.90;;;;;;5111808;28;20039;-71
2021/11/07 06:10:27;;;;;;;5.33;3.53;;;7.80;99.90;;;;;;5111976;28;20096;-71
2021/11/07 06:12:53;;;;;;;4.97;3.87;;;7.80;99.90;;;;;;5111965;28;20089;-72
2021/11/07 06:15:20;;;;;;;4.18;3.30;;;7.80;99.90;;;;;;5111417;28;20058;-71
2021/11/07 06:17:47;;;;;;;2.83;2.50;;;7.90;99.90;;;;;;5111919;28;20088;-72
2021/11/07 06:20:15;;;;;;;4.13;3.33;;;7.90;99.90;;;;;;5111766;28;20051;-71
2021/11/07 06:22:41;;;;;;;3.35;2.50;;;7.90;99.90;;;;;;5111572;28;20043;-74
2021/11/07 06:25:08;;;;;;;4.50;3.85;;;7.90;99.90;;;;;;5111399;28;20457;-71
2021/11/07 06:27:36;;;;;;;5.00;3.00;;;7.90;99.90;;;;;;5111754;28;20168;-72
2021/11/07 06:30:04;;;;;;;3.10;2.67;;;8.00;99.90;;;;;;5114199;28;20044;-71
2021/11/07 06:32:30;;;;;;;5.22;2.58;;;7.90;99.90;;;;;;5115571;28;20089;-71
2021/11/07 06:34:57;;;;;;;3.53;2.42;;;7.90;99.90;;;;;;5114953;28;20047;-72
2021/11/07 06:37:25;;;;;;;5.82;3.10;;;8.00;99.90;;;;;;5115346;28;20088;-71
2021/11/07 06:39:51;;;;;;;2.25;1.73;;;8.00;99.90;;;;;;5115396;28;20162;-70
2021/11/07 06:42:18;;;;;;;5.60;3.35;;;8.00;99.90;;;;;;5115522;28;20048;-71
2021/11/07 06:44:45;;;;;;;3.42;2.85;;;8.00;99.90;;;;;;5114764;28;20048;-71
2021/11/07 06:47:12;;;;;;;4.20;2.72;;;8.00;99.90;;;;;;5115272;28;20085;-72
2021/11/07 06:49:39;;;;;;;2.55;2.33;;;8.00;99.90;;;;;;5115570;28;20069;-70
2021/11/07 06:52:06;;;;;;;3.87;2.83;;;8.10;99.90;;;;;;5115441;28;20048;-70
2021/11/07 06:54:34;;;;;;;3.78;3.40;;;8.10;99.90;;;;;;5114644;28;20104;-71
2021/11/07 06:57:02;;;;;;;4.22;3.58;;;8.10;99.90;;;;;;5115076;28;20104;-72
2021/11/07 06:59:29;;;;;;;7.32;2.60;;;8.10;99.90;;;;;;5114883;28;20146;-70
2021/11/07 07:01:55;;;;;;;3.88;2.75;;;8.10;99.90;;;;;;5115030;28;20040;-70
2021/11/07 07:04:22;;;;;;;4.97;2.97;;;8.10;99.90;;;;;;5114334;28;20564;-72
2021/11/07 07:06:49;;;;;;;4.95;4.45;;;8.10;99.90;;;;;;5115069;28;20108;-73
2021/11/07 07:09:21;;;;;;;4.97;3.25;;;8.00;99.90;;;;;;5114956;28;20135;-71
2021/11/07 07:11:52;;;;;;;7.90;4.10;;;8.00;99.90;;;;;;5114797;28;20089;-70
2021/11/07 07:14:22;;;;;;;6.43;4.15;;;7.90;99.90;;;;;;5114434;28;20054;-71
2021/11/07 07:16:57;;;;;;;6.25;3.80;;;7.90;99.90;;;;;;5114457;28;20058;-70
2021/11/07 07:19:40;;;;;;;4.13;2.67;;;7.80;99.90;;;;;;5114732;28;20107;-71
2021/11/07 07:22:18;;;;;;;7.63;4.68;;;7.80;99.90;;;;;;5114462;28;20564;-70
2021/11/07 07:25:02;;;;;;;6.38;3.60;;;7.80;99.90;;;;;;5113934;28;20060;-70
2021/11/07 07:27:49;;;;;;;4.65;3.70;;;7.90;99.90;;;;;;5114728;28;20054;-70
2021/11/07 07:30:30;;;;;;;4.35;3.28;;;7.80;99.90;;;;;;5114600;28;20130;-71
2021/11/07 07:33:02;;;;;;;5.50;3.63;;;7.80;99.90;;;;;;5114358;28;20058;-71
2021/11/07 07:35:29;;;;;;;4.72;3.85;;;7.90;99.90;;;;;;5113828;28;20141;-71
2021/11/07 07:37:57;;;;;;;4.80;3.35;;;7.90;99.90;;;;;;5114463;28;20040;-72
2021/11/07 07:40:24;;;;;;;5.20;3.83;;;7.90;99.90;;;;;;5113105;28;20048;-71
2021/11/07 07:42:52;;;;;;;4.75;4.25;;;7.90;99.90;;;;;;5114098;28;20457;-71
2021/11/07 07:45:19;;;;;;;6.15;3.92;;;8.00;99.90;;;;;;5113874;28;20043;-71
2021/11/07 07:47:45;;;;;;;5.15;3.60;;;8.00;99.90;;;;;;5114060;28;20051;-72
2021/11/07 07:50:15;;;;;;;5.13;3.60;;;8.10;99.90;;;;;;5114396;28;20048;-71
2021/11/07 07:52:42;;;;;;;6.45;4.90;;;8.10;99.90;;;;;;5114659;28;20132;-71
2021/11/07 07:55:09;;;;;;;5.40;4.22;;;8.10;99.90;;;;;;5113631;28;20071;-72
2021/11/07 07:57:37;;;;;;;5.97;2.95;;;8.10;99.90;;;;;;5113993;28;20047;-71
2021/11/07 08:00:08;;;;;;;4.55;4.13;;;8.20;99.90;;;;;;5113912;28;20126;-71
2021/11/07 08:02:34;;;;;;;5.97;4.00;;;8.20;99.90;;;;;;5113931;27;20085;-71
2021/11/07 08:05:01;;;;;;;5.28;3.15;;;8.20;99.90;;;;;;5113481;28;20048;-71
2021/11/07 08:07:28;;;;;;;4.78;3.70;;;8.30;99.90;;;;;;5113913;28;20047;-71
2021/11/07 08:09:57;;;;;;;7.20;3.42;;;8.20;99.90;;;;;;5113399;28;20495;-71
2021/11/07 08:12:24;;;;;;;6.22;4.53;;;8.20;99.90;;;;;;5113686;28;20556;-71
2021/11/07 08:14:52;;;;;;;6.80;3.55;;;8.20;99.90;;;;;;5116056;28;20069;-73
2021/11/07 08:17:20;;;;;;;6.45;4.15;;;8.20;99.90;;;;;;5113453;28;20083;-71
2021/11/07 08:19:47;;;;;;;4.28;3.65;;;8.20;99.90;;;;;;5113519;28;20054;-70
2021/11/07 08:22:15;;;;;;;4.72;3.83;;;8.30;99.90;;;;;;5113306;28;20515;-70
2021/11/07 08:24:41;;;;;;;6.53;3.85;;;8.30;99.90;;;;;;5112736;28;20388;-72
2021/11/07 08:27:09;;;;;;;6.53;3.92;;;8.30;99.90;;;;;;5113268;27;20043;-70
2021/11/07 08:29:36;;;;;;;7.97;4.10;;;8.30;99.90;;;;;;5113120;28;20093;-71
2021/11/07 08:32:04;;;;;;;8.77;4.82;;;8.40;99.90;;;;;;5113440;28;20564;-70
2021/11/07 08:34:34;;;;;;;6.88;3.95;;;8.40;99.90;;;;;;5112886;28;20043;-71
2021/11/07 08:37:05;;;;;;;4.85;4.13;;;8.40;99.90;;;;;;5113088;28;20138;-72
2021/11/07 08:39:34;;;;;;;9.73;4.00;;;8.40;99.90;;;;;;5113192;28;20496;-70
2021/11/07 08:42:05;;;;;;;4.30;3.22;;;8.50;99.90;;;;;;5113094;28;20086;-70
2021/11/07 09:01:09;;;;;;;5.85;3.35;;;9.00;99.90;;;;;;5112480;28;20468;-72
2021/11/07 09:03:45;;;;;;;5.07;3.70;;;8.90;99.90;;;;;;5112480;28;20090;-72
2021/11/07 09:06:24;;;;;;;4.65;3.33;;;9.00;99.90;;;;;;5112729;28;20044;-73
2021/11/07 09:08:52;;;;;;;5.00;3.42;;;9.10;99.90;;;;;;5112574;28;20055;-72
2021/11/07 09:11:19;;;;;;;6.90;3.95;;;9.20;99.90;;;;;;5112281;28;20513;-69
2021/11/07 09:13:46;;;;;;;5.35;3.03;;;9.20;99.90;;;;;;5112037;28;20047;-68
2021/11/07 09:16:14;;;;;;;7.80;3.55;;;9.30;99.90;;;;;;5112339;28;20365;-68
2021/11/07 09:18:41;;;;;;;5.45;3.45;;;9.30;99.90;;;;;;5112419;28;20069;-68
2021/11/07 09:21:10;;;;;;;4.00;3.05;;;9.40;99.90;;;;;;5112249;28;20143;-69
2021/11/07 09:23:42;;;;;;;5.63;3.97;;;9.50;99.90;;;;;;5111835;28;20081;-69
2021/11/07 09:29:03;;;;;;;3.53;3.20;;;9.60;99.90;;;;;;5086736;28;20169;-69
2021/11/07 09:31:37;;;;;;;4.28;2.83;;;9.70;99.90;;;;;;5112759;28;20044;-68
2021/11/07 09:34:14;;;;;;;3.40;3.08;;;9.80;99.90;;;;;;5111569;28;20148;-69
2021/11/07 09:36:44;;;;;;;3.17;2.53;;;9.80;99.90;;;;;;5112191;28;20056;-69
2021/11/07 09:39:22;;;;;;;3.50;2.55;;;9.70;99.90;;;;;;5112030;28;20518;-73
2021/11/07 09:42:00;;;;;;;2.80;2.33;;;9.80;99.90;;;;;;5112175;28;20055;-71
2021/11/07 09:44:30;;;;;;;3.80;2.13;;;9.80;99.90;;;;;;5111677;28;20624;-72
2021/11/07 09:46:59;;;;;;;3.17;2.70;;;9.90;99.90;;;;;;5111658;28;20052;-70
2021/11/07 09:49:28;;;;;;;3.80;2.97;;;9.90;99.90;;;;;;5111874;28;20048;-72
2021/11/07 09:52:01;;;;;;;2.22;1.98;;;10.00;99.90;;;;;;5112157;28;20147;-71
2021/11/07 09:54:31;;;;;;;2.88;2.03;;;10.00;99.90;;;;;;5111508;28;20059;-72
2021/11/07 09:57:00;;;;;;;2.65;1.60;;;9.90;99.90;;;;;;5111586;28;20138;-71
2021/11/07 09:59:29;;;;;;;3.55;2.20;;;9.90;99.90;;;;;;5113394;28;20138;-78
2021/11/07 10:01:58;;;;;;;3.58;2.33;;;9.90;99.90;;;;;;5114928;28;20491;-77
2021/11/07 10:04:26;;;;;;;3.67;2.25;;;9.90;99.90;;;;;;5115705;28;20484;-78
2021/11/07 10:06:57;;;;;;;4.13;2.45;;;9.80;99.90;;;;;;5118289;28;20059;-71
2021/11/07 10:09:36;;;;;;;6.03;2.03;;;9.70;99.90;;;;;;5116091;28;20105;-71
2021/11/07 10:12:09;;;;;;;3.22;2.17;;;9.80;99.90;;;;;;5116415;28;20065;-70
2021/11/07 10:14:42;;;;;;;1.75;1.63;;;9.80;99.90;;;;;;5115497;28;20044;-71
2021/11/07 10:17:28;;;;;;;7.97;4.38;;;9.90;99.90;;;;;;5115739;28;20059;-70
2021/11/07 10:20:03;;;;;;;8.05;3.72;;;10.20;99.90;;;;;;5115771;28;20491;-69
2021/11/07 10:22:33;;;;;;;5.47;3.90;;;10.40;99.90;;;;;;5119438;28;20059;-71
2021/11/07 10:25:01;;;;;;;4.80;3.20;;;10.30;99.90;;;;;;5118511;28;20539;-73
2021/11/07 10:27:29;;;;;;;4.78;2.72;;;10.20;99.90;;;;;;5115598;28;20590;-73
2021/11/07 10:30:15;;;;;;;6.43;2.67;;;10.10;99.90;;;;;;5117165;28;20131;-74
2021/11/07 10:32:54;;;;;;;5.38;3.05;;;10.20;99.90;;;;;;5119806;28;20051;-73
2021/11/07 10:44:29;;;;;;;3.30;1.92;;;10.10;99.90;;;;;;5114859;28;20062;-72
2021/11/07 10:47:13;;;;;;;3.42;2.30;;;10.10;99.90;;;;;;5115551;28;20043;-74
2021/11/07 10:52:26;;;;;;;4.18;1.98;;;10.20;99.90;;;;;;5092236;28;20054;-74
2021/11/07 10:54:54;;;;;;;6.13;3.28;;;10.20;99.90;;;;;;5114938;28;20047;-73
2021/11/07 10:57:24;;;;;;;7.10;2.38;;;10.30;99.90;;;;;;5115023;28;20044;-73
2021/11/07 11:00:15;;;;;;;1.70;1.60;;;10.30;99.90;;;;;;5115055;28;20039;-72
2021/11/07 11:02:43;;;;;;;2.50;1.90;;;10.20;99.90;;;;;;5115225;28;20044;-74
2021/11/07 11:05:14;;;;;;;5.68;2.22;;;10.10;99.90;;;;;;5117906;28;20488;-74
2021/11/07 11:07:57;;;;;;;4.10;2.45;;;10.10;99.90;;;;;;5122464;28;20049;-72
2021/11/07 11:10:30;;;;;;;3.20;2.53;;;10.10;99.90;;;;;;5116208;28;20138;-72
2021/11/07 11:13:06;;;;;;;3.92;1.88;;;10.10;99.90;;;;;;5115076;28;20043;-73
2021/11/07 11:15:38;;;;;;;3.60;2.67;;;10.00;99.90;;;;;;5114453;28;20044;-73
2021/11/07 11:21:23;;;;;;;4.03;2.35;;;10.00;99.90;;;;;;5105107;28;20101;-73
2021/11/07 11:24:00;;;;;;;4.90;2.83;;;9.80;99.90;;;;;;5114260;28;20071;-73
2021/11/07 11:26:40;;;;;;;5.53;3.13;;;9.40;99.90;;;;;;5114544;28;20136;-73
2021/11/07 11:29:23;;;;;;;8.15;4.18;;;9.10;99.90;;;;;;5114595;28;20061;-73
2021/11/07 11:31:56;;;;;;;4.82;3.38;;;9.00;99.90;;;;;;5114631;28;20054;-73
2021/11/07 11:34:27;;;;;;;4.60;3.58;;;8.90;99.90;;;;;;5113999;28;20043;-73
2021/11/07 11:36:59;;;;;;;10.23;5.03;;;8.80;99.90;;;;;;5114437;28;20051;-73
2021/11/07 11:39:30;;;;;;;17.67;8.23;;;8.70;99.90;;;;;;5114086;28;20039;-73
2021/11/07 11:42:01;;;;;;;8.30;5.55;;;8.70;99.90;;;;;;5114533;28;20069;-73
2021/11/07 11:44:30;;;;;;;3.97;2.28;;;8.70;99.90;;;;;;5113987;28;20054;-73
2021/11/07 11:47:16;;;;;;;1.67;1.25;;;8.40;99.90;;;;;;5114365;28;20501;-73
2021/11/07 11:50:04;;;;;;;3.13;1.48;;;8.00;99.90;;;;;;5114100;28;20039;-73
2021/11/07 11:52:40;;;;;;;6.50;3.10;;;7.90;99.90;;;;;;5117296;28;20040;-73
2021/11/07 11:58:11;;;;;;;5.25;2.13;;;7.90;99.90;;;;;;5102907;28;20055;-73
2021/11/07 12:00:50;;;;;;;2.50;1.10;;;7.90;99.90;;;;;;5114718;28;20043;-73
2021/11/07 12:03:37;;;;;;;4.63;1.55;;;7.80;99.90;;;;;;5113689;28;20054;-73
2021/11/07 12:06:25;;;;;;;5.55;2.03;;;7.70;99.90;;;;;;5113818;28;20487;-74
2021/11/07 12:09:31;;;;;;;2.65;1.27;;;7.70;99.90;;;;;;5119013;28;20051;-72
2021/11/07 12:12:04;;;;;;;4.97;1.90;;;7.60;99.90;;;;;;5113799;28;20467;-73
2021/11/07 12:14:39;;;;;;;7.55;1.15;;;7.60;99.90;;;;;;5113806;28;20120;-72
2021/11/07 12:17:09;;;;;;;4.15;1.27;;;7.60;99.90;;;;;;5113934;28;20488;-72
2021/11/07 12:19:41;;;;;;;4.10;1.40;;;7.60;99.90;;;;;;5113740;28;20088;-73
2021/11/07 12:22:14;;;;;;;1.40;1.30;;;7.70;99.90;;;;;;5113458;28;20510;-73
2021/11/07 12:25:02;;;;;;;1.95;1.10;;;8.00;99.90;;;;;;5113074;28;20044;-75
2021/11/07 12:27:34;;;;;;;2.50;0.90;;;8.10;99.90;;;;;;5113228;28;20081;-73
2021/11/07 12:30:04;;;;;;;2.05;1.05;;;8.20;99.90;;;;;;5113490;28;20676;-73
2021/11/07 12:32:36;;;;;;;4.47;1.75;;;8.40;99.90;;;;;;5113693;28;20411;-72
2021/11/07 12:35:19;;;;;;;3.83;2.03;;;8.50;99.90;;;;;;5113097;28;20043;-73
2021/11/07 12:40:37;;;;;;;3.20;1.80;;;8.50;99.90;;;;;;5113469;28;20054;-72
2021/11/07 12:43:06;;;;;;;5.38;1.98;;;8.80;99.90;;;;;;5113343;28;20058;-74
2021/11/07 12:45:37;;;;;;;2.47;1.70;;;9.30;99.90;;;;;;5113145;28;20469;-73
2021/11/07 12:48:07;;;;;;;2.15;1.90;;;9.50;99.90;;;;;;5113025;28;20047;-73
2021/11/07 12:50:52;;;;;;;5.43;1.70;;;9.40;99.90;;;;;;5113147;28;20138;-73
2021/11/07 12:53:20;;;;;;;3.75;1.77;;;9.10;99.90;;;;;;5112321;28;20068;-73
2021/11/07 12:55:46;;;;;;;4.32;2.40;;;9.00;99.90;;;;;;5113505;28;20052;-73
2021/11/07 12:58:14;;;;;;;4.70;2.92;;;9.00;99.90;;;;;;5112684;28;20048;-73
2021/11/07 13:00:41;;;;;;;2.75;2.20;;;8.90;99.90;;;;;;5112825;28;20047;-73
2021/11/07 13:03:11;;;;;;;3.33;2.67;;;8.80;99.90;;;;;;5112184;28;20048;-74
2021/11/07 13:05:40;;;;;;;3.60;1.95;;;8.80;99.90;;;;;;5112794;28;20109;-73
2021/11/07 13:08:09;;;;;;;3.65;2.70;;;8.80;99.90;;;;;;5112456;28;20129;-76
2021/11/07 13:10:43;;;;;;;5.57;2.50;;;8.90;99.90;;;;;;5112437;28;20055;-73
2021/11/07 13:13:15;;;;;;;2.88;2.38;;;8.90;99.90;;;;;;5111854;28;20044;-74
2021/11/07 13:15:48;;;;;;;5.15;2.83;;;8.90;99.90;;;;;;5118850;28;20039;-72
2021/11/07 13:18:47;;;;;;;2.83;1.65;;;9.20;99.90;;;;;;5114776;28;20044;-73
2021/11/07 13:21:29;;;;;;;7.15;2.30;;;9.50;99.90;;;;;;5112616;28;20108;-73
2021/11/07 13:26:58;;;;;;;3.30;1.75;;;10.40;99.90;;;;;;5112856;28;20453;-73
2021/11/07 13:29:35;;;;;;;2.97;1.55;;;10.30;99.90;;;;;;5112226;28;20424;-73
2021/11/07 13:34:59;;;;;;;4.50;1.58;;;10.60;99.90;;;;;;5107932;28;20050;-72
2021/11/07 13:37:38;;;;;;;1.63;1.10;;;10.80;99.90;;;;;;5112502;28;20101;-72
2021/11/07 13:40:20;;;;;;;2.10;1.40;;;10.60;99.90;;;;;;5111945;28;20040;-73
2021/11/07 13:42:47;;;;;;;3.45;2.17;;;10.40;99.90;;;;;;5112274;28;20109;-73
2021/11/07 13:45:29;;;;;;;3.38;1.27;;;10.20;99.90;;;;;;5111554;28;20108;-75
2021/11/07 13:47:58;;;;;;;3.38;2.88;;;9.90;99.90;;;;;;5112032;28;20051;-74
2021/11/07 13:50:30;;;;;;;1.85;1.63;;;10.00;99.90;;;;;;5111913;28;20137;-73
2021/11/07 13:52:57;;;;;;;;;;;9.80;99.90;;;;;;5112600;28;20055;-74
2021/11/07 13:55:27;;;;;;;4.63;3.05;;;10.10;99.90;;;;;;5111615;28;19920;-74
2021/11/07 13:57:55;;;;;;;1.80;1.40;;;10.40;99.90;;;;;;5112057;28;20522;-74
2021/11/07 14:00:25;;;;;;;2.22;1.30;;;10.50;99.90;;;;;;5111678;28;20043;-73
2021/11/07 14:02:54;;;;;;;3.55;1.33;;;10.50;99.90;;;;;;5111887;28;20044;-73